Time;durP1;ratioP1;P1;durP2;ratioP2;P2;SDS_P1;SDS_P2;PMS_P1;PMS_P2;Temp;Humidity;BMP_temperature;BMP_pressure;BME280_temperature;BME280_humidity;BME280_pressure;Samples;Min_cycle;Max_cycle;Signal;HPM_P1;HPM_P2
2023/06/09 00:02:06;;;;;;;;;;;;;;;;;;4945045;29;19925;-87
2023/06/09 00:04:53;;;;;;;;;;;;;;;;;;4944144;29;19924;-93
2023/06/09 00:07:39;;;;;;;;;;;;;;;;;;4935536;29;19919;-91
2023/06/09 00:10:26;;;;;;;;;;;;;;;;;;4946271;29;19915;-92
2023/06/09 00:13:12;;;;;;;;;;;;;;;;;;4934193;28;20327;-90
2023/06/09 00:15:59;;;;;;;;;;;;;;;;;;4945793;29;19923;-90
2023/06/09 00:18:46;;;;;;;;;;;;;;;;;;4945146;29;20143;-90
2023/06/09 00:21:32;;;;;;;;;;;;;;;;;;4944094;29;19918;-91
2023/06/09 00:24:20;;;;;;;;;;;;;;;;;;4936129;29;19919;-90
2023/06/09 00:27:08;;;;;;;;;;;;;;;;;;4937833;29;19926;-90
2023/06/09 00:29:55;;;;;;;;;;;;;;;;;;4940837;29;20299;-89
2023/06/09 00:32:45;;;;;;;;;;;;;;;;;;4948132;29;19953;-89
2023/06/09 00:35:32;;;;;;;;;;;;;;;;;;4940358;28;19918;-89
2023/06/09 00:38:18;;;;;;;;;;;;;;;;;;4944621;29;20403;-89
2023/06/09 00:41:05;;;;;;;;;;;;;;;;;;4940955;29;19923;-92
2023/06/09 00:43:51;;;;;;;;;;;;;;;;;;4954463;29;20287;-94
2023/06/09 00:46:38;;;;;;;;;;;;;;;;;;4955775;28;19930;-78
2023/06/09 00:49:24;;;;;;;;;;;;;;;;;;4953879;29;19915;-94
2023/06/09 00:52:11;;;;;;;;;;;;;;;;;;4955175;29;19921;-95
2023/06/09 00:54:58;;;;;;;;;;;;;;;;;;4953523;28;19919;-95
2023/06/09 00:57:44;;;;;;;;;;;;;;;;;;4946989;28;19991;-94
2023/06/09 01:00:31;;;;;;;;;;;;;;;;;;4946658;29;19923;-94
2023/06/09 01:03:18;;;;;;;;;;;;;;;;;;4951803;28;19922;-93
2023/06/09 01:06:04;;;;;;;;;;;;;;;;;;4936436;29;19922;-93
2023/06/09 01:08:51;;;;;;;;;;;;;;;;;;4937536;28;19926;-92
2023/06/09 01:11:37;;;;;;;;;;;;;;;;;;4949390;29;19915;-93
2023/06/09 01:14:24;;;;;;;;;;;;;;;;;;4954487;29;19942;-92
2023/06/09 01:17:11;;;;;;;;;;;;;;;;;;4953371;28;20374;-93
2023/06/09 01:19:57;;;;;;;;;;;;;;;;;;4942891;29;19915;-93
2023/06/09 01:22:44;;;;;;;;;;;;;;;;;;4946336;29;19930;-90
2023/06/09 01:25:37;;;;;;;;;;;;;;;;;;4941475;29;19931;-90
2023/06/09 01:28:24;;;;;;;;;;;;;;;;;;4942551;29;20461;-92
2023/06/09 01:31:11;;;;;;;;;;;;;;;;;;4957658;28;19924;-93
2023/06/09 01:33:58;;;;;;;;;;;;;;;;;;4947024;28;19931;-94
2023/06/09 01:36:44;;;;;;;;;;;;;;;;;;4949941;29;19914;-94
2023/06/09 01:39:31;;;;;;;;;;;;;;;;;;4952246;29;19919;-94
2023/06/09 01:42:17;;;;;;;;;;;;;;;;;;4952927;28;20396;-95
2023/06/09 01:45:04;;;;;;;;;;;;;;;;;;4957735;29;19915;-94
2023/06/09 01:47:50;;;;;;;;;;;;;;;;;;4946649;29;19929;-92
2023/06/09 01:50:37;;;;;;;;;;;;;;;;;;4952378;29;20662;-93
2023/06/09 01:53:23;;;;;;;;;;;;;;;;;;4955082;28;19925;-92
2023/06/09 01:56:10;;;;;;;;;;;;;;;;;;4943653;28;19930;-92
2023/06/09 01:58:56;;;;;;;;;;;;;;;;;;4950901;29;19941;-92
2023/06/09 02:01:43;;;;;;;;;;;;;;;;;;4948798;28;19925;-93
2023/06/09 02:04:29;;;;;;;;;;;;;;;;;;4939641;29;19925;-91
2023/06/09 02:07:16;;;;;;;;;;;;;;;;;;4946179;28;19930;-92
2023/06/09 02:10:02;;;;;;;;;;;;;;;;;;4944319;29;19925;-91
2023/06/09 02:12:49;;;;;;;;;;;;;;;;;;4936891;29;20585;-95
2023/06/09 02:15:35;;;;;;;;;;;;;;;;;;4957331;29;19919;-94
2023/06/09 02:18:22;;;;;;;;;;;;;;;;;;4936201;29;19919;-90
2023/06/09 02:21:09;;;;;;;;;;;;;;;;;;4941207;28;19930;-92
2023/06/09 02:23:55;;;;;;;;;;;;;;;;;;4934188;28;19918;-91
2023/06/09 02:26:42;;;;;;;;;;;;;;;;;;4941392;28;19931;-92
2023/06/09 02:29:28;;;;;;;;;;;;;;;;;;4949960;28;19925;-93
2023/06/09 02:32:15;;;;;;;;;;;;;;;;;;4952012;28;19919;-93
2023/06/09 02:35:01;;;;;;;;;;;;;;;;;;4954295;29;20701;-95
2023/06/09 02:37:48;;;;;;;;;;;;;;;;;;4941449;28;19914;-94
2023/06/09 02:40:34;;;;;;;;;;;;;;;;;;4962482;29;20372;-96
2023/06/09 02:43:21;;;;;;;;;;;;;;;;;;4958782;29;19921;-95
2023/06/09 02:46:09;;;;;;;;;;;;;;;;;;4966516;29;19922;-96
2023/06/09 02:48:55;;;;;;;;;;;;;;;;;;4967268;29;19914;-95
2023/06/09 02:51:42;;;;;;;;;;;;;;;;;;4963498;29;19929;-89
2023/06/09 02:54:28;;;;;;;;;;;;;;;;;;4979666;28;19918;-95
2023/06/09 02:57:15;;;;;;;;;;;;;;;;;;4958771;28;19915;-94
2023/06/09 03:00:04;;;;;;;;;;;;;;;;;;4963550;29;19925;-94
2023/06/09 03:02:51;;;;;;;;;;;;;;;;;;4956630;28;19915;-90
2023/06/09 03:05:40;;;;;;;;;;;;;;;;;;4937118;29;19929;-90
2023/06/09 03:08:26;;;;;;;;;;;;;;;;;;4946473;29;19921;-94
2023/06/09 03:11:13;;;;;;;;;;;;;;;;;;4941480;28;19925;-93
2023/06/09 03:13:59;;;;;;;;;;;;;;;;;;4943645;29;19930;-92
2023/06/09 03:16:46;;;;;;;;;;;;;;;;;;4934196;29;19929;-92
2023/06/09 03:19:32;;;;;;;;;;;;;;;;;;4949237;29;19914;-90
2023/06/09 03:22:19;;;;;;;;;;;;;;;;;;4947261;29;19938;-94
2023/06/09 03:25:05;;;;;;;;;;;;;;;;;;4949876;28;19926;-95
2023/06/09 03:27:51;;;;;;;;;;;;;;;;;;4951205;29;19931;-92
2023/06/09 03:30:38;;;;;;;;;;;;;;;;;;4954921;29;19927;-78
2023/06/09 03:33:25;;;;;;;;;;;;;;;;;;4949117;29;19918;-94
2023/06/09 03:36:11;;;;;;;;;;;;;;;;;;4948470;29;20704;-94
2023/06/09 03:38:58;;;;;;;;;;;;;;;;;;4949071;29;19915;-93
2023/06/09 03:41:44;;;;;;;;;;;;;;;;;;4942406;29;19919;-92
2023/06/09 03:44:31;;;;;;;;;;;;;;;;;;4950083;28;19927;-88
2023/06/09 03:47:17;;;;;;;;;;;;;;;;;;4938562;29;19931;-86
2023/06/09 03:50:04;;;;;;;;;;;;;;;;;;4943646;28;19915;-83
2023/06/09 03:52:50;;;;;;;;;;;;;;;;;;4941679;29;19929;-85
2023/06/09 03:55:38;;;;;;;;;;;;;;;;;;4945675;28;20476;-89
2023/06/09 03:58:24;;;;;;;;;;;;;;;;;;4946206;28;19926;-88
2023/06/09 04:01:12;;;;;;;;;;;;;;;;;;4940303;28;19930;-89
2023/06/09 04:03:58;;;;;;;;;;;;;;;;;;4943231;28;19929;-89
2023/06/09 04:06:45;;;;;;;;;;;;;;;;;;4944860;28;19926;-86
2023/06/09 04:09:32;;;;;;;;;;;;;;;;;;4933538;29;19919;-87
2023/06/09 04:12:19;;;;;;;;;;;;;;;;;;4943784;29;19915;-89
2023/06/09 04:15:06;;;;;;;;;;;;;;;;;;4940070;28;19919;-86
2023/06/09 04:17:53;;;;;;;;;;;;;;;;;;4937637;29;19926;-85
2023/06/09 04:20:39;;;;;;;;;;;;;;;;;;4938094;29;19915;-90
2023/06/09 04:23:29;;;;;;;;;;;;;;;;;;4938835;29;19930;-88
2023/06/09 04:26:16;;;;;;;;;;;;;;;;;;4933607;29;19923;-88
2023/06/09 04:29:03;;;;;;;;;;;;;;;;;;4944696;28;19945;-88
2023/06/09 04:31:53;;;;;;;;;;;;;;;;;;4959908;29;20433;-94
2023/06/09 04:34:40;;;;;;;;;;;;;;;;;;4945026;28;19915;-92
2023/06/09 04:37:26;;;;;;;;;;;;;;;;;;4957745;28;19918;-91
2023/06/09 04:40:14;;;;;;;;;;;;;;;;;;4952449;28;19915;-93
2023/06/09 04:43:01;;;;;;;;;;;;;;;;;;4939586;29;19915;-92
2023/06/09 04:45:55;;;;;;;;;;;;;;;;;;4939330;28;19930;-92
2023/06/09 04:48:44;;;;;;;;;;;;;;;;;;4939345;28;19923;-93
2023/06/09 04:51:41;;;;;;;;;;;;;;;;;;4951043;29;19934;-92
2023/06/09 04:54:28;;;;;;;;;;;;;;;;;;4948436;28;19918;-91
2023/06/09 04:57:17;;;;;;;;;;;;;;;;;;4950265;29;19923;-91
2023/06/09 05:00:04;;;;;;;;;;;;;;;;;;4941212;28;19923;-91
2023/06/09 05:02:51;;;;;;;;;;;;;;;;;;4944969;28;19921;-91
2023/06/09 05:05:37;;;;;;;;;;;;;;;;;;4944863;28;19929;-90
2023/06/09 05:08:24;;;;;;;;;;;;;;;;;;4945724;29;20362;-90
2023/06/09 05:11:10;;;;;;;;;;;;;;;;;;4945144;29;19922;-90
2023/06/09 05:13:57;;;;;;;;;;;;;;;;;;4944207;28;20219;-90
2023/06/09 05:16:45;;;;;;;;;;;;;;;;;;4946122;29;19919;-89
2023/06/09 05:19:32;;;;;;;;;;;;;;;;;;4937184;28;19925;-87
2023/06/09 05:22:18;;;;;;;;;;;;;;;;;;4941101;29;19919;-88
2023/06/09 05:25:05;;;;;;;;;;;;;;;;;;4935602;28;19919;-87
2023/06/09 05:27:51;;;;;;;;;;;;;;;;;;4943955;29;19960;-93
2023/06/09 05:30:37;;;;;;;;;;;;;;;;;;4943890;29;19922;-92
2023/06/09 05:33:24;;;;;;;;;;;;;;;;;;4938146;29;19923;-90
2023/06/09 05:36:12;;;;;;;;;;;;;;;;;;4937941;29;19923;-91
2023/06/09 05:38:58;;;;;;;;;;;;;;;;;;4943617;28;19923;-89
2023/06/09 05:41:45;;;;;;;;;;;;;;;;;;4943685;28;19944;-90
2023/06/09 05:44:31;;;;;;;;;;;;;;;;;;4946252;29;19929;-90
2023/06/09 05:47:18;;;;;;;;;;;;;;;;;;4937989;29;19938;-89
2023/06/09 05:50:05;;;;;;;;;;;;;;;;;;4939645;29;19922;-88
2023/06/09 05:52:51;;;;;;;;;;;;;;;;;;4941718;28;20294;-87
2023/06/09 05:55:38;;;;;;;;;;;;;;;;;;4938694;29;19921;-88
2023/06/09 05:58:27;;;;;;;;;;;;;;;;;;4946696;28;19930;-87
2023/06/09 06:01:15;;;;;;;;;;;;;;;;;;4955380;28;19923;-89
2023/06/09 06:04:02;;;;;;;;;;;;;;;;;;4942202;29;19919;-88
2023/06/09 06:06:48;;;;;;;;;;;;;;;;;;4936194;28;19950;-88
2023/06/09 06:09:35;;;;;;;;;;;;;;;;;;4942051;29;19930;-88
2023/06/09 06:12:21;;;;;;;;;;;;;;;;;;4945481;29;19918;-90
2023/06/09 06:15:08;;;;;;;;;;;;;;;;;;4947384;29;19918;-92
2023/06/09 06:17:54;;;;;;;;;;;;;;;;;;4938902;29;19919;-92
2023/06/09 06:20:41;;;;;;;;;;;;;;;;;;4949424;29;20302;-94
2023/06/09 06:23:27;;;;;;;;;;;;;;;;;;4943215;29;19921;-93
2023/06/09 06:26:17;;;;;;;;;;;;;;;;;;4950487;28;19961;-89
2023/06/09 06:29:03;;;;;;;;;;;;;;;;;;4975798;29;19929;-95
2023/06/09 06:31:50;;;;;;;;;;;;;;;;;;4942951;28;19923;-94
2023/06/09 06:34:36;;;;;;;;;;;;;;;;;;4943950;28;19919;-90
2023/06/09 06:37:23;;;;;;;;;;;;;;;;;;4951922;28;19918;-84
2023/06/09 06:40:09;;;;;;;;;;;;;;;;;;4941083;28;19930;-83
2023/06/09 06:42:56;;;;;;;;;;;;;;;;;;4939083;28;19925;-82
2023/06/09 06:45:42;;;;;;;;;;;;;;;;;;4945044;28;19929;-85
2023/06/09 06:48:29;;;;;;;;;;;;;;;;;;4943696;28;19930;-83
2023/06/09 06:51:15;;;;;;;;;;;;;;;;;;4934031;29;19922;-84
2023/06/09 06:54:03;;;;;;;;;;;;;;;;;;4937747;28;19923;-84
2023/06/09 06:56:50;;;;;;;;;;;;;;;;;;4935895;28;19919;-83
2023/06/09 06:59:36;;;;;;;;;;;;;;;;;;4944899;28;19922;-84
2023/06/09 07:02:23;;;;;;;;;;;;;;;;;;4936035;28;20364;-83
2023/06/09 07:05:09;;;;;;;;;;;;;;;;;;4945925;29;19922;-84
2023/06/09 07:07:56;;;;;;;;;;;;;;;;;;4939129;29;19922;-83
2023/06/09 07:10:42;;;;;;;;;;;;;;;;;;4940230;29;19923;-83
2023/06/09 07:13:29;;;;;;;;;;;;;;;;;;4948847;28;19966;-82
2023/06/09 07:16:15;;;;;;;;;;;;;;;;;;4942478;28;20393;-82
2023/06/09 07:19:02;;;;;;;;;;;;;;;;;;4942438;29;19926;-82
2023/06/09 07:21:48;;;;;;;;;;;;;;;;;;4937278;29;20406;-82
2023/06/09 07:24:35;;;;;;;;;;;;;;;;;;4934516;28;19925;-83
2023/06/09 07:27:21;;;;;;;;;;;;;;;;;;4917666;28;19954;-83
2023/06/09 07:30:11;;;;;;;;;;;;;;;;;;4956053;28;19925;-83
2023/06/09 07:32:57;;;;;;;;;;;;;;;;;;4929229;28;19926;-83
2023/06/09 07:35:53;;;;;;;;;;;;;;;;;;4900125;29;19934;-83
2023/06/09 07:38:43;;;;;;;;;;;;;;;;;;4945119;29;19926;-81
2023/06/09 07:41:30;;;;;;;;;;;;;;;;;;4918602;28;20421;-82
2023/06/09 07:44:17;;;;;;;;;;;;;;;;;;4908683;28;19917;-82
2023/06/09 07:47:04;;;;;;;;;;;;;;;;;;4932377;28;19926;-84
2023/06/09 07:49:50;;;;;;;;;;;;;;;;;;4949835;28;19915;-83
2023/06/09 07:52:37;;;;;;;;;;;;;;;;;;4952372;28;19914;-83
2023/06/09 07:55:25;;;;;;;;;;;;;;;;;;4925964;29;19918;-83
2023/06/09 07:58:12;;;;;;;;;;;;;;;;;;4941656;29;20298;-82
2023/06/09 08:00:58;;;;;;;;;;;;;;;;;;4943548;28;19926;-82
2023/06/09 08:03:45;;;;;;;;;;;;;;;;;;4938525;28;19941;-82
2023/06/09 08:06:33;;;;;;;;;;;;;;;;;;4940892;28;20659;-84
2023/06/09 08:09:20;;;;;;;;;;;;;;;;;;4937539;28;19925;-84
2023/06/09 08:12:06;;;;;;;;;;;;;;;;;;4933011;28;19929;-83
2023/06/09 08:14:53;;;;;;;;;;;;;;;;;;4937379;28;19923;-83
2023/06/09 08:17:39;;;;;;;;;;;;;;;;;;4932879;28;19973;-84
2023/06/09 08:20:26;;;;;;;;;;;;;;;;;;4953416;28;19929;-83
2023/06/09 08:23:12;;;;;;;;;;;;;;;;;;4953039;28;19934;-85
2023/06/09 08:25:59;;;;;;;;;;;;;;;;;;4936733;28;19961;-82
2023/06/09 08:28:46;;;;;;;;;;;;;;;;;;4937237;28;19930;-83
2023/06/09 08:31:32;;;;;;;;;;;;;;;;;;4937438;29;19956;-83
2023/06/09 08:34:19;;;;;;;;;;;;;;;;;;4943726;28;19921;-83
2023/06/09 08:37:05;;;;;;;;;;;;;;;;;;4940361;28;19926;-82
2023/06/09 08:39:54;;;;;;;;;;;;;;;;;;4944182;29;20329;-84
2023/06/09 08:42:41;;;;;;;;;;;;;;;;;;4937984;29;19938;-82
2023/06/09 08:45:29;;;;;;;;;;;;;;;;;;4930366;28;19926;-85
2023/06/09 08:48:16;;;;;;;;;;;;;;;;;;4947902;28;19950;-84
2023/06/09 08:51:02;;;;;;;;;;;;;;;;;;4930168;28;19929;-84
2023/06/09 08:53:49;;;;;;;;;;;;;;;;;;4934966;29;19923;-85
2023/06/09 08:56:35;;;;;;;;;;;;;;;;;;4939392;29;19925;-84
2023/06/09 08:59:22;;;;;;;;;;;;;;;;;;4938985;28;19923;-82
2023/06/09 09:02:08;;;;;;;;;;;;;;;;;;4929517;28;19925;-84
2023/06/09 09:04:55;;;;;;;;;;;;;;;;;;4929566;29;20283;-83
2023/06/09 09:07:44;;;;;;;;;;;;;;;;;;4937823;29;19931;-84
2023/06/09 09:10:31;;;;;;;;;;;;;;;;;;4934704;28;19918;-84
2023/06/09 09:13:19;;;;;;;;;;;;;;;;;;4944932;28;19919;-84
2023/06/09 09:16:06;;;;;;;;;;;;;;;;;;4939644;28;19942;-84
2023/06/09 09:18:52;;;;;;;;;;;;;;;;;;4946197;29;20401;-84
2023/06/09 09:21:39;;;;;;;;;;;;;;;;;;4936033;29;19925;-82
2023/06/09 09:24:25;;;;;;;;;;;;;;;;;;4913725;29;19933;-84
2023/06/09 09:27:12;;;;;;;;;;;;;;;;;;4944941;28;19930;-78
2023/06/09 09:29:58;;;;;;;;;;;;;;;;;;4932443;28;20034;-84
2023/06/09 09:32:45;;;;;;;;;;;;;;;;;;4946720;28;19929;-83
2023/06/09 09:35:31;;;;;;;;;;;;;;;;;;4941344;28;19921;-85
2023/06/09 09:38:18;;;;;;;;;;;;;;;;;;4935098;28;20276;-86
2023/06/09 09:41:04;;;;;;;;;;;;;;;;;;4941835;28;19925;-83
2023/06/09 09:43:51;;;;;;;;;;;;;;;;;;4941852;28;19934;-83
2023/06/09 09:46:37;;;;;;;;;;;;;;;;;;4943627;28;19923;-84
2023/06/09 09:49:24;;;;;;;;;;;;;;;;;;4932292;28;19923;-82
2023/06/09 09:52:12;;;;;;;;;;;;;;;;;;4944718;28;20396;-83
2023/06/09 09:54:58;;;;;;;;;;;;;;;;;;4942818;29;20091;-83
2023/06/09 09:57:45;;;;;;;;;;;;;;;;;;4936466;29;19926;-81
2023/06/09 10:00:35;;;;;;;;;;;;;;;;;;4948447;28;19922;-81
2023/06/09 10:03:21;;;;;;;;;;;;;;;;;;4939353;28;19930;-82
2023/06/09 10:06:11;;;;;;;;;;;;;;;;;;4940189;29;19946;-82
2023/06/09 10:08:58;;;;;;;;;;;;;;;;;;4940708;29;20290;-82
2023/06/09 10:11:44;;;;;;;;;;;;;;;;;;4926013;28;20350;-82
2023/06/09 10:14:31;;;;;;;;;;;;;;;;;;4935598;28;20350;-81
2023/06/09 10:17:17;;;;;;;;;;;;;;;;;;4940148;29;19929;-83
2023/06/09 10:20:05;;;;;;;;;;;;;;;;;;4913936;29;19922;-82
2023/06/09 10:22:51;;;;;;;;;;;;;;;;;;4935654;28;19953;-82
2023/06/09 10:25:38;;;;;;;;;;;;;;;;;;4943162;28;19918;-83
2023/06/09 10:28:25;;;;;;;;;;;;;;;;;;4926998;29;19938;-82
2023/06/09 10:31:12;;;;;;;;;;;;;;;;;;4935253;29;19925;-82
2023/06/09 10:33:58;;;;;;;;;;;;;;;;;;4929294;28;19927;-81
2023/06/09 10:36:45;;;;;;;;;;;;;;;;;;4939741;28;19926;-82
2023/06/09 10:39:32;;;;;;;;;;;;;;;;;;4935908;29;19926;-82
2023/06/09 10:42:18;;;;;;;;;;;;;;;;;;4941038;28;19934;-82
2023/06/09 10:45:05;;;;;;;;;;;;;;;;;;4945457;28;19925;-82
2023/06/09 10:47:51;;;;;;;;;;;;;;;;;;4937775;28;20298;-82
2023/06/09 10:50:38;;;;;;;;;;;;;;;;;;4949187;28;19914;-82
2023/06/09 10:53:24;;;;;;;;;;;;;;;;;;4934976;29;20390;-82
2023/06/09 10:56:11;;;;;;;;;;;;;;;;;;4941573;28;19919;-83
2023/06/09 10:58:57;;;;;;;;;;;;;;;;;;4934755;29;19933;-81
2023/06/09 11:01:44;;;;;;;;;;;;;;;;;;4939747;28;19922;-82
2023/06/09 11:04:30;;;;;;;;;;;;;;;;;;4936601;29;19918;-82
2023/06/09 11:07:17;;;;;;;;;;;;;;;;;;4933512;28;19931;-82
2023/06/09 11:10:03;;;;;;;;;;;;;;;;;;4930902;29;19926;-82
2023/06/09 11:12:52;;;;;;;;;;;;;;;;;;4937824;28;19930;-82
2023/06/09 11:15:39;;;;;;;;;;;;;;;;;;4940233;29;19922;-81
2023/06/09 11:18:25;;;;;;;;;;;;;;;;;;4952343;28;19930;-82
2023/06/09 11:21:12;;;;;;;;;;;;;;;;;;4930853;28;19926;-82
2023/06/09 11:24:03;;;;;;;;;;;;;;;;;;4943725;28;19933;-81
2023/06/09 11:26:49;;;;;;;;;;;;;;;;;;4934566;28;19931;-82
2023/06/09 11:29:36;;;;;;;;;;;;;;;;;;4935031;29;20290;-81
2023/06/09 11:32:22;;;;;;;;;;;;;;;;;;4938332;29;19926;-82
2023/06/09 11:35:09;;;;;;;;;;;;;;;;;;4935082;29;19919;-81
2023/06/09 11:37:56;;;;;;;;;;;;;;;;;;4933611;28;19926;-82
2023/06/09 11:40:42;;;;;;;;;;;;;;;;;;4944019;28;19918;-82
2023/06/09 11:43:29;;;;;;;;;;;;;;;;;;4938279;29;19926;-82
2023/06/09 11:46:16;;;;;;;;;;;;;;;;;;4931723;28;19919;-83
2023/06/09 11:49:03;;;;;;;;;;;;;;;;;;4940028;28;19919;-83
2023/06/09 11:51:50;;;;;;;;;;;;;;;;;;4935927;28;19919;-82
2023/06/09 11:54:36;;;;;;;;;;;;;;;;;;4931418;28;19923;-83
2023/06/09 11:57:23;;;;;;;;;;;;;;;;;;4941023;29;19930;-82
2023/06/09 12:00:12;;;;;;;;;;;;;;;;;;4941167;29;19926;-83
2023/06/09 12:02:59;;;;;;;;;;;;;;;;;;4939876;29;19930;-83
2023/06/09 12:05:46;;;;;;;;;;;;;;;;;;4937599;28;20419;-82
2023/06/09 12:08:32;;;;;;;;;;;;;;;;;;4950697;28;19933;-82
2023/06/09 12:11:19;;;;;;;;;;;;;;;;;;4936229;28;19914;-81
2023/06/09 12:14:06;;;;;;;;;;;;;;;;;;4933602;29;19942;-80
2023/06/09 12:16:52;;;;;;;;;;;;;;;;;;4946931;28;20374;-81
2023/06/09 12:19:39;;;;;;;;;;;;;;;;;;4944667;29;19928;-79
2023/06/09 12:22:25;;;;;;;;;;;;;;;;;;4929559;29;20131;-81
2023/06/09 12:25:12;;;;;;;;;;;;;;;;;;4927540;28;20448;-81
2023/06/09 12:27:58;;;;;;;;;;;;;;;;;;4950558;28;19930;-81
2023/06/09 12:30:47;;;;;;;;;;;;;;;;;;4949220;28;19945;-81
2023/06/09 12:33:33;;;;;;;;;;;;;;;;;;4944789;28;20418;-79
2023/06/09 12:36:20;;;;;;;;;;;;;;;;;;4935701;28;20396;-80
2023/06/09 12:39:07;;;;;;;;;;;;;;;;;;4953152;28;19918;-79
2023/06/09 12:41:53;;;;;;;;;;;;;;;;;;4945079;29;19928;-79
2023/06/09 12:44:40;;;;;;;;;;;;;;;;;;4934909;29;19922;-81
2023/06/09 12:47:26;;;;;;;;;;;;;;;;;;4931788;28;19927;-80
2023/06/09 12:50:13;;;;;;;;;;;;;;;;;;4938463;29;19919;-82
2023/06/09 12:52:59;;;;;;;;;;;;;;;;;;4938293;28;19930;-80
2023/06/09 12:55:46;;;;;;;;;;;;;;;;;;4941714;28;19961;-79
2023/06/09 12:58:32;;;;;;;;;;;;;;;;;;4941363;28;20401;-79
2023/06/09 13:01:18;;;;;;;;;;;;;;;;;;4944552;28;19930;-80
2023/06/09 13:04:05;;;;;;;;;;;;;;;;;;4943034;28;19924;-80
2023/06/09 13:06:51;;;;;;;;;;;;;;;;;;4943415;28;19961;-80
2023/06/09 13:09:38;;;;;;;;;;;;;;;;;;4935358;29;19926;-80
2023/06/09 13:12:24;;;;;;;;;;;;;;;;;;4937261;28;19933;-80
2023/06/09 13:15:11;;;;;;;;;;;;;;;;;;4942046;28;19922;-80
2023/06/09 13:17:57;;;;;;;;;;;;;;;;;;4928949;28;19926;-81
2023/06/09 13:20:44;;;;;;;;;;;;;;;;;;4938114;28;20442;-80
2023/06/09 13:23:30;;;;;;;;;;;;;;;;;;4942376;28;20346;-81
2023/06/09 13:26:17;;;;;;;;;;;;;;;;;;4936962;28;19929;-80
2023/06/09 13:29:03;;;;;;;;;;;;;;;;;;4952825;28;19929;-80
2023/06/09 13:31:50;;;;;;;;;;;;;;;;;;4939923;28;19933;-81
2023/06/09 13:34:37;;;;;;;;;;;;;;;;;;4948178;29;19965;-86
2023/06/09 13:37:24;;;;;;;;;;;;;;;;;;4936389;28;20398;-87
2023/06/09 13:40:10;;;;;;;;;;;;;;;;;;4934990;28;20013;-86
2023/06/09 13:42:57;;;;;;;;;;;;;;;;;;4941144;29;19954;-84
2023/06/09 13:45:43;;;;;;;;;;;;;;;;;;4937349;28;19918;-85
2023/06/09 13:48:30;;;;;;;;;;;;;;;;;;4947298;28;19929;-85
2023/06/09 13:51:16;;;;;;;;;;;;;;;;;;4941999;28;19918;-84
2023/06/09 13:54:02;;;;;;;;;;;;;;;;;;4936332;29;20373;-84
2023/06/09 13:56:49;;;;;;;;;;;;;;;;;;4931329;28;19934;-84
2023/06/09 13:59:36;;;;;;;;;;;;;;;;;;4942621;28;19918;-84
2023/06/09 14:02:23;;;;;;;;;;;;;;;;;;4947725;29;19929;-84
2023/06/09 14:05:10;;;;;;;;;;;;;;;;;;4942412;28;19975;-84
2023/06/09 14:07:56;;;;;;;;;;;;;;;;;;4937197;28;19957;-83
2023/06/09 14:10:43;;;;;;;;;;;;;;;;;;4941469;29;20441;-84
2023/06/09 14:13:29;;;;;;;;;;;;;;;;;;4944806;29;19918;-83
2023/06/09 14:16:16;;;;;;;;;;;;;;;;;;4939313;28;19929;-83
2023/06/09 14:19:03;;;;;;;;;;;;;;;;;;4947002;28;19921;-84
2023/06/09 14:21:49;;;;;;;;;;;;;;;;;;4940714;28;20727;-85
2023/06/09 14:24:36;;;;;;;;;;;;;;;;;;4941005;29;19915;-85
2023/06/09 14:27:22;;;;;;;;;;;;;;;;;;4938348;29;20388;-85
2023/06/09 14:30:09;;;;;;;;;;;;;;;;;;4930655;29;19914;-84
2023/06/09 14:32:55;;;;;;;;;;;;;;;;;;4945670;28;19929;-84
2023/06/09 14:35:45;;;;;;;;;;;;;;;;;;4937555;28;19919;-83
2023/06/09 14:38:32;;;;;;;;;;;;;;;;;;4947173;28;19914;-84
2023/06/09 14:41:18;;;;;;;;;;;;;;;;;;4939414;29;20294;-83
2023/06/09 14:44:05;;;;;;;;;;;;;;;;;;4948813;28;19918;-83
2023/06/09 14:46:51;;;;;;;;;;;;;;;;;;4937626;28;19927;-84
2023/06/09 14:49:38;;;;;;;;;;;;;;;;;;4951124;29;19968;-84
2023/06/09 14:52:24;;;;;;;;;;;;;;;;;;4938299;28;19972;-84
2023/06/09 14:55:11;;;;;;;;;;;;;;;;;;4950729;29;20537;-84
2023/06/09 14:57:57;;;;;;;;;;;;;;;;;;4950090;29;19946;-84
2023/06/09 15:00:44;;;;;;;;;;;;;;;;;;4931532;28;19933;-83
2023/06/09 15:03:30;;;;;;;;;;;;;;;;;;4938716;28;19918;-84
2023/06/09 15:06:17;;;;;;;;;;;;;;;;;;4958651;28;19924;-82
2023/06/09 15:09:03;;;;;;;;;;;;;;;;;;4946325;28;19927;-82
2023/06/09 15:11:50;;;;;;;;;;;;;;;;;;4942046;29;20373;-83
2023/06/09 15:14:36;;;;;;;;;;;;;;;;;;4945572;29;19919;-83
2023/06/09 15:17:22;;;;;;;;;;;;;;;;;;4942727;29;19919;-84
2023/06/09 15:20:09;;;;;;;;;;;;;;;;;;4948252;29;19921;-84
2023/06/09 15:22:57;;;;;;;;;;;;;;;;;;4947469;28;19922;-85
2023/06/09 15:25:44;;;;;;;;;;;;;;;;;;4943005;29;20246;-85
2023/06/09 15:28:31;;;;;;;;;;;;;;;;;;4933373;28;19969;-85
2023/06/09 15:31:17;;;;;;;;;;;;;;;;;;4938668;29;19915;-87
2023/06/09 15:34:04;;;;;;;;;;;;;;;;;;4939154;28;19922;-87
2023/06/09 15:36:50;;;;;;;;;;;;;;;;;;4951643;28;19929;-88
2023/06/09 15:39:37;;;;;;;;;;;;;;;;;;4938558;29;19923;-90
2023/06/09 15:42:23;;;;;;;;;;;;;;;;;;4935650;28;19930;-85
2023/06/09 15:45:10;;;;;;;;;;;;;;;;;;4934320;29;19922;-85
2023/06/09 15:47:56;;;;;;;;;;;;;;;;;;4942455;29;20310;-85
2023/06/09 15:50:43;;;;;;;;;;;;;;;;;;4939308;28;19957;-83
2023/06/09 15:53:29;;;;;;;;;;;;;;;;;;4941361;28;19933;-83
2023/06/09 15:56:15;;;;;;;;;;;;;;;;;;4948648;28;20008;-84
2023/06/09 15:59:02;;;;;;;;;;;;;;;;;;4937132;28;19918;-79
2023/06/09 16:01:52;;;;;;;;;;;;;;;;;;4926976;28;20398;-82
2023/06/09 16:04:39;;;;;;;;;;;;;;;;;;4930410;29;19919;-81
2023/06/09 16:07:25;;;;;;;;;;;;;;;;;;4938162;29;20306;-81
2023/06/09 16:10:12;;;;;;;;;;;;;;;;;;4933615;28;19926;-79
2023/06/09 16:13:00;;;;;;;;;;;;;;;;;;4930772;29;19919;-81
2023/06/09 16:15:47;;;;;;;;;;;;;;;;;;4927567;29;19929;-81
2023/06/09 16:18:33;;;;;;;;;;;;;;;;;;4942693;29;19922;-81
2023/06/09 16:21:20;;;;;;;;;;;;;;;;;;4935189;28;19941;-81
2023/06/09 16:24:06;;;;;;;;;;;;;;;;;;4942800;29;19929;-81
2023/06/09 16:26:53;;;;;;;;;;;;;;;;;;4937554;29;19929;-82
2023/06/09 16:29:39;;;;;;;;;;;;;;;;;;4944627;29;19915;-82
2023/06/09 16:32:26;;;;;;;;;;;;;;;;;;4939462;29;19938;-80
2023/06/09 16:35:12;;;;;;;;;;;;;;;;;;4938562;28;20426;-80
2023/06/09 16:37:59;;;;;;;;;;;;;;;;;;4940974;28;19926;-80
2023/06/09 16:40:45;;;;;;;;;;;;;;;;;;4940398;29;19924;-81
2023/06/09 16:43:32;;;;;;;;;;;;;;;;;;4943203;28;19926;-82
2023/06/09 16:46:18;;;;;;;;;;;;;;;;;;4932137;28;19923;-85
2023/06/09 16:49:05;;;;;;;;;;;;;;;;;;4935624;28;19930;-84
2023/06/09 16:51:52;;;;;;;;;;;;;;;;;;4941652;28;19961;-83
2023/06/09 16:54:38;;;;;;;;;;;;;;;;;;4937398;28;20379;-83
2023/06/09 16:57:25;;;;;;;;;;;;;;;;;;4938007;29;20457;-84
2023/06/09 17:00:11;;;;;;;;;;;;;;;;;;4928136;29;19927;-81
2023/06/09 17:02:58;;;;;;;;;;;;;;;;;;4937688;28;19930;-80
2023/06/09 17:05:44;;;;;;;;;;;;;;;;;;4936632;29;19925;-82
2023/06/09 17:08:31;;;;;;;;;;;;;;;;;;4947101;28;19945;-82
2023/06/09 17:11:18;;;;;;;;;;;;;;;;;;4946732;28;19925;-82
2023/06/09 17:14:04;;;;;;;;;;;;;;;;;;4934712;28;19926;-81
2023/06/09 17:16:51;;;;;;;;;;;;;;;;;;4946379;29;19930;-82
2023/06/09 17:19:37;;;;;;;;;;;;;;;;;;4940442;29;19921;-82
2023/06/09 17:22:24;;;;;;;;;;;;;;;;;;4936474;28;20610;-81
2023/06/09 17:25:10;;;;;;;;;;;;;;;;;;4941744;28;20338;-82
2023/06/09 17:27:57;;;;;;;;;;;;;;;;;;4938816;28;19930;-82
2023/06/09 17:30:43;;;;;;;;;;;;;;;;;;4946983;29;19925;-80
2023/06/09 17:33:30;;;;;;;;;;;;;;;;;;4947371;28;19941;-80
2023/06/09 17:36:16;;;;;;;;;;;;;;;;;;4928834;28;19923;-80
2023/06/09 17:39:03;;;;;;;;;;;;;;;;;;4943638;28;20353;-80
2023/06/09 17:41:49;;;;;;;;;;;;;;;;;;4941204;29;19918;-80
2023/06/09 17:44:36;;;;;;;;;;;;;;;;;;4937518;29;19918;-80
2023/06/09 17:47:22;;;;;;;;;;;;;;;;;;4946162;28;19957;-81
2023/06/09 17:50:09;;;;;;;;;;;;;;;;;;4947106;28;19926;-80
2023/06/09 17:52:56;;;;;;;;;;;;;;;;;;4935626;28;19927;-80
2023/06/09 17:55:42;;;;;;;;;;;;;;;;;;4945101;28;20341;-81
2023/06/09 17:58:29;;;;;;;;;;;;;;;;;;4946588;28;19923;-81
2023/06/09 18:01:15;;;;;;;;;;;;;;;;;;4947089;28;19918;-81
2023/06/09 18:04:02;;;;;;;;;;;;;;;;;;4941294;29;20256;-81
2023/06/09 18:06:48;;;;;;;;;;;;;;;;;;4951803;28;19923;-80
2023/06/09 18:09:35;;;;;;;;;;;;;;;;;;4951278;28;19938;-83
2023/06/09 18:12:21;;;;;;;;;;;;;;;;;;4937318;28;19949;-82
2023/06/09 18:15:08;;;;;;;;;;;;;;;;;;4946544;28;19925;-82
2023/06/09 18:17:54;;;;;;;;;;;;;;;;;;4940340;28;19929;-82
2023/06/09 18:20:41;;;;;;;;;;;;;;;;;;4944510;28;20393;-80
2023/06/09 18:23:27;;;;;;;;;;;;;;;;;;4949040;28;21203;-81
2023/06/09 18:26:17;;;;;;;;;;;;;;;;;;4939062;28;19926;-81
2023/06/09 18:29:04;;;;;;;;;;;;;;;;;;4937452;29;19934;-82
2023/06/09 18:31:52;;;;;;;;;;;;;;;;;;4949791;28;19926;-82
2023/06/09 18:34:39;;;;;;;;;;;;;;;;;;4943858;28;20291;-83
2023/06/09 18:37:25;;;;;;;;;;;;;;;;;;4951864;28;19930;-82
2023/06/09 18:40:12;;;;;;;;;;;;;;;;;;4947374;29;19940;-78
2023/06/09 18:42:58;;;;;;;;;;;;;;;;;;4941007;28;19929;-79
2023/06/09 18:45:45;;;;;;;;;;;;;;;;;;4938793;28;19922;-79
2023/06/09 18:48:31;;;;;;;;;;;;;;;;;;4942009;28;19961;-79
2023/06/09 18:51:18;;;;;;;;;;;;;;;;;;4940178;28;19925;-79
2023/06/09 18:54:04;;;;;;;;;;;;;;;;;;4939009;29;19927;-81
2023/06/09 18:56:54;;;;;;;;;;;;;;;;;;4933822;29;19922;-79
2023/06/09 18:59:41;;;;;;;;;;;;;;;;;;4920292;28;19926;-77